| time (UTC) | temp C | wind direction | speed KPH | gust KPH | rain 1hr cm | rain 24hr cm | rain mn cm | humidity % | barometer mb |
| 20260506215019 | 13 | 0.0 | 3.2 | 0.00 | 0.03 | 0.00 | 84 | 1015.2 | |
| 20260506214108 | 13 | 88 | 1.6 | 3.2 | 0.00 | 0.03 | 0.00 | 84 | 1015.2 |
| 20260506213104 | 13 | 100 | 1.6 | 3.2 | 0.00 | 0.03 | 0.00 | 83 | 1015.2 |
| 20260506212053 | 14 | 113 | 1.6 | 3.2 | 0.00 | 0.03 | 0.00 | 82 | 1015.2 |
| 20260506211043 | 14 | 95 | 1.6 | 3.2 | 0.00 | 0.03 | 0.00 | 81 | 1015.3 |
| 20260506210040 | 14 | 90 | 1.6 | 3.2 | 0.00 | 0.03 | 0.00 | 81 | 1015.2 |
| 20260506205031 | 14 | 105 | 1.6 | 3.2 | 0.00 | 0.03 | 0.00 | 80 | 1015.4 |
| 20260506204019 | 14 | 87 | 1.6 | 3.2 | 0.00 | 0.03 | 0.00 | 80 | 1015.3 |
| 20260506203016 | 14 | 120 | 3.2 | 3.2 | 0.00 | 0.03 | 0.00 | 80 | 1015.3 |
| 20260506202106 | 14 | 113 | 1.6 | 3.2 | 0.00 | 0.03 | 0.00 | 80 | 1015.2 |
| 20260506201057 | 14 | 94 | 1.6 | 3.2 | 0.00 | 0.03 | 0.00 | 80 | 1015.1 |
| 20260506200112 | 14 | 83 | 1.6 | 3.2 | 0.00 | 0.03 | 0.00 | 80 | 1015.1 |
| 20260506195041 | 14 | 117 | 1.6 | 3.2 | 0.00 | 0.03 | 0.00 | 80 | 1015.1 |
| 20260506194031 | 14 | 125 | 3.2 | 6.4 | 0.00 | 0.03 | 0.00 | 80 | 1015.0 |
| 20260506193027 | 14 | 132 | 3.2 | 6.4 | 0.00 | 0.03 | 0.00 | 79 | 1014.9 |
| 20260506192017 | 15 | 109 | 3.2 | 6.4 | 0.00 | 0.03 | 0.00 | 79 | 1014.8 |
| 20260506191108 | 15 | 107 | 3.2 | 6.4 | 0.00 | 0.03 | 0.00 | 79 | 1015.0 |
| 20260506190105 | 15 | 131 | 1.6 | 6.4 | 0.00 | 0.03 | 0.00 | 78 | 1014.8 |
| 20260506185055 | 15 | 118 | 3.2 | 6.4 | 0.00 | 0.03 | 0.00 | 77 | 1014.8 |
| 20260506184044 | 15 | 135 | 3.2 | 6.4 | 0.00 | 0.03 | 0.00 | 77 | 1014.7 |
| 20260506183039 | 15 | 142 | 1.6 | 6.4 | 0.00 | 0.03 | 0.00 | 77 | 1014.8 |
| 20260506182031 | 15 | 110 | 3.2 | 9.7 | 0.00 | 0.03 | 0.00 | 77 | 1015.0 |
| 20260506181101 | 15 | 133 | 3.2 | 6.4 | 0.00 | 0.03 | 0.00 | 76 | 1015.0 |
| 20260506180015 | 16 | 176 | 1.6 | 6.4 | 0.00 | 0.03 | 0.00 | 77 | 1015.0 |
| 20260506175106 | 16 | 331 | 1.6 | 6.4 | 0.00 | 0.03 | 0.00 | 77 | 1015.0 |
| 20260506174057 | 16 | 56 | 1.6 | 6.4 | 0.00 | 0.03 | 0.00 | 77 | 1015.0 |
| 20260506173052 | 16 | 154 | 3.2 | 9.7 | 0.00 | 0.03 | 0.00 | 76 | 1014.8 |
| 20260506172042 | 16 | 117 | 4.8 | 9.7 | 0.00 | 0.03 | 0.00 | 76 | 1014.9 |
| 20260506171034 | 17 | 313 | 4.8 | 11.3 | 0.00 | 0.03 | 0.00 | 75 | 1015.0 |
| 20260506170028 | 17 | 173 | 3.2 | 6.4 | 0.00 | 0.03 | 0.00 | 73 | 1015.1 |
| 20260506164544 | 18 | 30 | 3.2 | 6.4 | 0.00 | 0.03 | 0.00 | 72 | 1015.0 |
| 20260506163541 | 18 | 252 | 3.2 | 6.4 | 0.00 | 0.03 | 0.00 | 71 | 1014.9 |
| 20260506162530 | 18 | 201 | 1.6 | 6.4 | 0.00 | 0.03 | 0.00 | 71 | 1014.9 |
| 20260506161520 | 17 | 109 | 3.2 | 6.4 | 0.00 | 0.03 | 0.00 | 71 | 1014.8 |
| 20260506160516 | 18 | 5 | 1.6 | 3.2 | 0.00 | 0.03 | 0.00 | 69 | 1014.9 |
| 20260506155610 | 17 | 161 | 3.2 | 9.7 | 0.00 | 0.03 | 0.00 | 71 | 1014.9 |
| 20260506154624 | 18 | 43 | 3.2 | 6.4 | 0.00 | 0.03 | 0.00 | 69 | 1014.9 |
| 20260506153555 | 18 | 211 | 3.2 | 6.4 | 0.00 | 0.03 | 0.00 | 69 | 1014.9 |
| 20260506152544 | 17 | 300 | 1.6 | 6.4 | 0.00 | 0.03 | 0.00 | 70 | 1015.1 |
| 20260506151540 | 17 | 9 | 3.2 | 11.3 | 0.00 | 0.03 | 0.00 | 70 | 1015.1 |
| 20260506150531 | 16 | 237 | 4.8 | 11.3 | 0.00 | 0.03 | 0.00 | 72 | 1015.2 |
| 20260506145522 | 16 | 316 | 8.0 | 17.7 | 0.00 | 0.03 | 0.00 | 72 | 1015.3 |
| 20260506144516 | 16 | 327 | 8.0 | 17.7 | 0.00 | 0.03 | 0.00 | 74 | 1015.2 |
| 20260506143108 | 17 | 310 | 6.4 | 14.5 | 0.00 | 0.03 | 0.00 | 73 | 1015.3 |
| 20260506142124 | 17 | 324 | 6.4 | 12.9 | 0.00 | 0.03 | 0.00 | 71 | 1015.5 |
| 20260506141054 | 16 | 301 | 6.4 | 12.9 | 0.00 | 0.03 | 0.00 | 72 | 1015.4 |
| 20260506140045 | 16 | 303 | 8.0 | 20.9 | 0.00 | 0.03 | 0.00 | 72 | 1015.4 |
| 20260506135040 | 17 | 355 | 4.8 | 14.5 | 0.00 | 0.03 | 0.00 | 72 | 1015.6 |
| 20260506134051 | 16 | 296 | 3.2 | 9.7 | 0.00 | 0.03 | 0.00 | 73 | 1015.7 |
| 20260506133020 | 16 | 313 | 4.8 | 12.9 | 0.00 | 0.03 | 0.00 | 74 | 1015.8 |
| 20260506132016 | 16 | 261 | 4.8 | 12.9 | 0.00 | 0.03 | 0.00 | 75 | 1015.9 |
| 20260506131108 | 16 | 263 | 6.4 | 17.7 | 0.00 | 0.03 | 0.00 | 76 | 1015.8 |
| 20260506130057 | 16 | 34 | 3.2 | 9.7 | 0.00 | 0.03 | 0.00 | 75 | 1015.6 |
| 20260506125053 | 16 | 271 | 4.8 | 14.5 | 0.00 | 0.03 | 0.00 | 75 | 1016.0 |
| 20260506124042 | 16 | 237 | 3.2 | 6.4 | 0.00 | 0.03 | 0.00 | 71 | 1015.9 |
| 20260506123034 | 16 | 296 | 4.8 | 11.3 | 0.00 | 0.03 | 0.00 | 74 | 1016.0 |
| 20260506122028 | 16 | 348 | 6.4 | 17.7 | 0.00 | 0.03 | 0.00 | 74 | 1016.0 |
| 20260506120543 | 16 | 314 | 6.4 | 12.9 | 0.00 | 0.03 | 0.00 | 73 | 1016.0 |
| 20260506115532 | 16 | 307 | 4.8 | 11.3 | 0.00 | 0.03 | 0.00 | 69 | 1016.0 |
| 20260506114528 | 17 | 299 | 3.2 | 9.7 | 0.00 | 0.03 | 0.00 | 67 | 1016.1 |
| 20260506113518 | 16 | 355 | 4.8 | 12.9 | 0.00 | 0.03 | 0.00 | 69 | 1016.1 |
| 20260506112608 | 16 | 12 | 4.8 | 12.9 | 0.00 | 0.03 | 0.00 | 70 | 1016.1 |
| 20260506111604 | 16 | 10 | 4.8 | 9.7 | 0.00 | 0.03 | 0.00 | 69 | 1016.2 |
| 20260506110555 | 16 | 297 | 6.4 | 11.3 | 0.00 | 0.03 | 0.00 | 72 | 1016.2 |
| 20260506105545 | 16 | 307 | 6.4 | 12.9 | 0.00 | 0.03 | 0.00 | 70 | 1016.3 |
| 20260506104541 | 16 | 306 | 3.2 | 9.7 | 0.00 | 0.03 | 0.00 | 71 | 1016.3 |
| 20260506103531 | 16 | 288 | 4.8 | 12.9 | 0.00 | 0.03 | 0.00 | 68 | 1016.3 |
| 20260506102520 | 16 | 328 | 4.8 | 11.3 | 0.00 | 0.03 | 0.00 | 68 | 1016.4 |
| 20260506101516 | 16 | 295 | 4.8 | 11.3 | 0.00 | 0.03 | 0.00 | 69 | 1016.3 |
| 20260506100607 | 16 | 326 | 3.2 | 9.7 | 0.00 | 0.03 | 0.00 | 69 | 1016.2 |
| 20260506095557 | 15 | 258 | 3.2 | 6.4 | 0.00 | 0.03 | 0.00 | 71 | 1016.3 |
| 20260506094554 | 15 | 297 | 4.8 | 11.3 | 0.00 | 0.03 | 0.00 | 71 | 1016.2 |
| 20260506093543 | 15 | 52 | 1.6 | 6.4 | 0.00 | 0.03 | 0.00 | 73 | 1016.3 |
| 20260506092533 | 15 | 333 | 3.2 | 9.7 | 0.00 | 0.03 | 0.00 | 73 | 1016.3 |
| 20260506091530 | 15 | 221 | 1.6 | 6.4 | 0.00 | 0.03 | 0.00 | 73 | 1016.3 |
| 20260506090540 | 15 | 298 | 3.2 | 11.3 | 0.00 | 0.03 | 0.00 | 74 | 1016.2 |
| 20260506085610 | 15 | 285 | 3.2 | 6.4 | 0.00 | 0.03 | 0.00 | 75 | 1016.2 |
| 20260506084605 | 14 | 271 | 3.2 | 6.4 | 0.00 | 0.03 | 0.00 | 76 | 1016.2 |
| 20260506083555 | 13 | 237 | 3.2 | 6.4 | 0.00 | 0.03 | 0.00 | 78 | 1016.2 |
| 20260506082608 | 13 | 245 | 4.8 | 9.7 | 0.00 | 0.03 | 0.00 | 78 | 1016.1 |
| 20260506081542 | 13 | 295 | 3.2 | 9.7 | 0.00 | 0.03 | 0.00 | 80 | 1016.2 |
| 20260506080554 | 13 | 242 | 1.6 | 6.4 | 0.00 | 0.03 | 0.00 | 81 | 1016.2 |
| 20260506072540 | 12 | 258 | 3.2 | 6.4 | 0.00 | 0.03 | 0.00 | 81 | 1016.2 |
| 20260506071610 | 12 | 176 | 1.6 | 6.4 | 0.00 | 0.03 | 0.00 | 81 | 1016.3 |
| 20260506070605 | 12 | 281 | 0.0 | 3.2 | 0.00 | 0.03 | 0.00 | 81 | 1016.2 |
| 20260506061544 | 12 | 208 | 1.6 | 3.2 | 0.00 | 0.03 | 0.00 | 82 | 1015.8 |
| 20260506060520 | 12 | 234 | 1.6 | 6.4 | 0.00 | 0.03 | 0.00 | 82 | 1015.9 |
| 20260506050530 | 11 | 248 | 3.2 | 6.4 | 0.00 | 0.03 | 0.00 | 84 | 1015.6 |
| 20260506044516 | 11 | 254 | 3.2 | 6.4 | 0.00 | 0.03 | 0.00 | 85 | 1015.6 |
| 20260506043608 | 11 | 242 | 4.8 | 9.7 | 0.00 | 0.03 | 0.00 | 85 | 1015.7 |
| 20260506042557 | 11 | 257 | 3.2 | 6.4 | 0.00 | 0.03 | 0.00 | 86 | 1015.6 |
| 20260506041553 | 11 | 255 | 1.6 | 3.2 | 0.00 | 0.03 | 0.00 | 86 | 1015.8 |
| 20260506040543 | 11 | 267 | 1.6 | 6.4 | 0.00 | 0.03 | 0.00 | 86 | 1015.8 |
| 20260506035534 | 11 | 221 | 4.8 | 9.7 | 0.00 | 0.03 | 0.00 | 86 | 1015.7 |
| 20260506034549 | 11 | 246 | 3.2 | 6.4 | 0.00 | 0.03 | 0.00 | 86 | 1015.8 |
| 20260506033541 | 11 | 262 | 3.2 | 6.4 | 0.00 | 0.03 | 0.00 | 86 | 1015.8 |
| 20260506032631 | 11 | 266 | 1.6 | 6.4 | 0.00 | 0.03 | 0.00 | 86 | 1016.0 |
| 20260506031606 | 11 | 260 | 3.2 | 9.7 | 0.00 | 0.03 | 0.00 | 86 | 1015.8 |
| 20260506030106 | 11 | 247 | 1.6 | 6.4 | 0.00 | 0.03 | 0.00 | 86 | 1015.9 |
| 20260506025056 | 11 | 236 | 3.2 | 6.4 | 0.00 | 0.03 | 0.00 | 86 | 1015.8 |
| 20260506024106 | 11 | 222 | 1.6 | 6.4 | 0.00 | 0.03 | 0.00 | 87 | 1016.0 |
| 20260506023042 | 11 | 235 | 3.2 | 6.4 | 0.00 | 0.03 | 0.00 | 87 | 1016.0 |
| 20260506022032 | 11 | 249 | 3.2 | 9.7 | 0.00 | 0.03 | 0.00 | 87 | 1015.9 |
| 20260506021022 | 11 | 228 | 1.6 | 6.4 | 0.00 | 0.03 | 0.00 | 87 | 1016.0 |
| 20260506020018 | 11 | 243 | 3.2 | 6.4 | 0.00 | 0.03 | 0.00 | 87 | 1016.0 |
| 20260506015108 | 11 | 252 | 1.6 | 3.2 | 0.00 | 0.03 | 0.00 | 87 | 1016.1 |
| 20260506014058 | 11 | 263 | 1.6 | 3.2 | 0.00 | 0.03 | 0.00 | 88 | 1016.0 |
| 20260506013054 | 11 | 275 | 1.6 | 6.4 | 0.00 | 0.03 | 0.00 | 88 | 1016.0 |
| 20260506012146 | 11 | 252 | 1.6 | 6.4 | 0.00 | 0.03 | 0.00 | 88 | 1016.1 |
| 20260506011036 | 11 | 265 | 3.2 | 6.4 | 0.00 | 0.03 | 0.00 | 88 | 1016.4 |
| 20260506010031 | 11 | 259 | 4.8 | 9.7 | 0.00 | 0.03 | 0.00 | 88 | 1016.5 |
| 20260506004542 | 12 | 252 | 1.6 | 6.4 | 0.00 | 0.03 | 0.00 | 87 | 1016.7 |
| 20260506003615 | 12 | 225 | 1.6 | 6.4 | 0.00 | 0.03 | 0.00 | 87 | 1016.7 |
| 20260506002522 | 12 | 253 | 3.2 | 6.4 | 0.00 | 0.03 | 0.00 | 87 | 1016.7 |
| 20260506001518 | 12 | 261 | 1.6 | 6.4 | 0.00 | 0.03 | 0.00 | 87 | 1016.7 |
| 20260506000608 | 12 | 265 | 3.2 | 6.4 | 0.00 | 0.03 | 0.00 | 87 | 1016.7 |
| 20260505235559 | 12 | 243 | 4.8 | 9.7 | 0.00 | 0.03 | 0.00 | 87 | 1016.8 |
| 20260505234554 | 12 | 233 | 3.2 | 9.7 | 0.00 | 0.03 | 0.00 | 88 | 1016.8 |
| 20260505233605 | 12 | 257 | 3.2 | 6.4 | 0.00 | 0.03 | 0.00 | 88 | 1016.9 |
| 20260505232534 | 12 | 249 | 4.8 | 9.7 | 0.00 | 0.03 | 0.00 | 88 | 1016.8 |
| 20260505231530 | 12 | 241 | 3.2 | 6.4 | 0.00 | 0.03 | 0.00 | 88 | 1016.9 |
| 20260505230520 | 12 | 234 | 3.2 | 6.4 | 0.00 | 0.03 | 0.00 | 88 | 1016.9 |
| 20260505225612 | 12 | 234 | 3.2 | 11.3 | 0.03 | 0.03 | 0.03 | 88 | 1017.0 |
| 20260505224606 | 12 | 218 | 3.2 | 6.4 | 0.03 | 0.03 | 0.03 | 88 | 1016.9 |
| 20260505223556 | 12 | 202 | 1.6 | 6.4 | 0.03 | 0.03 | 0.03 | 88 | 1017.0 |
| 20260505222546 | 12 | 277 | 1.6 | 6.4 | 0.03 | 0.03 | 0.03 | 88 | 1017.1 |
| 20260505221602 | 12 | 243 | 3.2 | 6.4 | 0.03 | 0.03 | 0.03 | 88 | 1017.0 |
| 20260505220552 | 13 | 237 | 3.2 | 6.4 | 0.03 | 0.03 | 0.03 | 87 | 1017.0 |